sensor_id;sensor_type;location;lat;lon;timestamp;P1;durP1;ratioP1;P2;durP2;ratioP2
18999;SDS011;9633;50.980;13.850;2023-04-03T00:01:28;3.43;;;1.60;;
18999;SDS011;9633;50.980;13.850;2023-04-03T00:03:01;3.30;;;1.90;;
18999;SDS011;9633;50.980;13.850;2023-04-03T00:04:34;6.03;;;1.80;;
18999;SDS011;9633;50.980;13.850;2023-04-03T00:06:09;3.67;;;1.77;;
18999;SDS011;9633;50.980;13.850;2023-04-03T00:07:43;4.83;;;1.80;;
18999;SDS011;9633;50.980;13.850;2023-04-03T00:09:16;3.00;;;2.00;;
18999;SDS011;9633;50.980;13.850;2023-04-03T00:10:49;4.00;;;1.60;;
18999;SDS011;9633;50.980;13.850;2023-04-03T00:12:22;2.60;;;1.67;;
18999;SDS011;9633;50.980;13.850;2023-04-03T00:13:55;7.67;;;2.10;;
18999;SDS011;9633;50.980;13.850;2023-04-03T00:15:29;5.97;;;2.10;;
18999;SDS011;9633;50.980;13.850;2023-04-03T00:17:01;3.47;;;1.90;;
18999;SDS011;9633;50.980;13.850;2023-04-03T00:18:34;5.97;;;1.90;;
18999;SDS011;9633;50.980;13.850;2023-04-03T00:20:08;3.97;;;2.13;;
18999;SDS011;9633;50.980;13.850;2023-04-03T00:21:42;6.17;;;1.70;;
18999;SDS011;9633;50.980;13.850;2023-04-03T00:23:16;2.63;;;1.73;;
18999;SDS011;9633;50.980;13.850;2023-04-03T00:24:49;4.33;;;2.13;;
18999;SDS011;9633;50.980;13.850;2023-04-03T00:26:22;6.13;;;2.30;;
18999;SDS011;9633;50.980;13.850;2023-04-03T00:27:55;4.63;;;2.00;;
18999;SDS011;9633;50.980;13.850;2023-04-03T00:29:29;5.03;;;1.83;;
18999;SDS011;9633;50.980;13.850;2023-04-03T00:31:02;3.70;;;1.90;;
18999;SDS011;9633;50.980;13.850;2023-04-03T00:32:34;3.60;;;1.90;;
18999;SDS011;9633;50.980;13.850;2023-04-03T00:34:07;3.17;;;1.93;;
18999;SDS011;9633;50.980;13.850;2023-04-03T00:35:41;6.20;;;2.20;;
18999;SDS011;9633;50.980;13.850;2023-04-03T00:37:16;3.50;;;1.70;;
18999;SDS011;9633;50.980;13.850;2023-04-03T00:38:48;3.77;;;1.80;;
18999;SDS011;9633;50.980;13.850;2023-04-03T00:40:22;4.57;;;1.80;;
18999;SDS011;9633;50.980;13.850;2023-04-03T00:41:57;4.63;;;1.70;;
18999;SDS011;9633;50.980;13.850;2023-04-03T00:43:30;4.27;;;1.60;;
18999;SDS011;9633;50.980;13.850;2023-04-03T00:47:05;3.03;;;1.60;;
18999;SDS011;9633;50.980;13.850;2023-04-03T00:48:41;2.73;;;1.60;;
18999;SDS011;9633;50.980;13.850;2023-04-03T00:50:17;4.83;;;1.87;;
18999;SDS011;9633;50.980;13.850;2023-04-03T00:51:49;4.90;;;1.90;;
18999;SDS011;9633;50.980;13.850;2023-04-03T00:53:25;3.17;;;1.60;;
18999;SDS011;9633;50.980;13.850;2023-04-03T00:55:03;3.90;;;1.90;;
18999;SDS011;9633;50.980;13.850;2023-04-03T00:56:38;5.80;;;2.07;;
18999;SDS011;9633;50.980;13.850;2023-04-03T00:58:12;7.17;;;2.00;;
18999;SDS011;9633;50.980;13.850;2023-04-03T00:59:49;4.50;;;1.80;;
18999;SDS011;9633;50.980;13.850;2023-04-03T01:01:27;3.60;;;1.73;;
18999;SDS011;9633;50.980;13.850;2023-04-03T01:03:02;4.33;;;2.10;;
18999;SDS011;9633;50.980;13.850;2023-04-03T01:04:36;4.10;;;1.60;;
18999;SDS011;9633;50.980;13.850;2023-04-03T01:06:11;3.40;;;1.57;;
18999;SDS011;9633;50.980;13.850;2023-04-03T01:07:49;5.37;;;1.93;;
18999;SDS011;9633;50.980;13.850;2023-04-03T01:09:25;3.00;;;1.60;;
18999;SDS011;9633;50.980;13.850;2023-04-03T01:10:59;5.10;;;1.80;;
18999;SDS011;9633;50.980;13.850;2023-04-03T01:12:33;4.23;;;1.90;;
18999;SDS011;9633;50.980;13.850;2023-04-03T01:14:07;2.90;;;2.00;;
18999;SDS011;9633;50.980;13.850;2023-04-03T01:15:40;3.43;;;2.10;;
18999;SDS011;9633;50.980;13.850;2023-04-03T01:17:29;6.17;;;1.90;;
18999;SDS011;9633;50.980;13.850;2023-04-03T01:19:04;5.47;;;2.13;;
18999;SDS011;9633;50.980;13.850;2023-04-03T01:20:44;3.60;;;1.87;;
18999;SDS011;9633;50.980;13.850;2023-04-03T01:22:38;3.17;;;2.00;;
18999;SDS011;9633;50.980;13.850;2023-04-03T01:24:21;5.00;;;1.80;;
18999;SDS011;9633;50.980;13.850;2023-04-03T01:26:12;5.33;;;2.13;;
18999;SDS011;9633;50.980;13.850;2023-04-03T01:27:46;3.93;;;1.70;;
18999;SDS011;9633;50.980;13.850;2023-04-03T01:29:19;3.80;;;1.90;;
18999;SDS011;9633;50.980;13.850;2023-04-03T01:30:53;4.33;;;1.93;;
18999;SDS011;9633;50.980;13.850;2023-04-03T01:32:36;6.07;;;2.50;;
18999;SDS011;9633;50.980;13.850;2023-04-03T01:34:09;4.63;;;2.20;;
18999;SDS011;9633;50.980;13.850;2023-04-03T01:35:42;3.63;;;2.03;;
18999;SDS011;9633;50.980;13.850;2023-04-03T01:37:16;4.73;;;2.27;;
18999;SDS011;9633;50.980;13.850;2023-04-03T01:38:49;4.63;;;1.87;;
18999;SDS011;9633;50.980;13.850;2023-04-03T01:40:21;4.93;;;1.80;;
18999;SDS011;9633;50.980;13.850;2023-04-03T01:41:55;4.90;;;2.03;;
18999;SDS011;9633;50.980;13.850;2023-04-03T01:43:34;6.37;;;2.10;;
18999;SDS011;9633;50.980;13.850;2023-04-03T01:45:07;4.50;;;2.20;;
18999;SDS011;9633;50.980;13.850;2023-04-03T01:46:41;4.43;;;2.00;;
18999;SDS011;9633;50.980;13.850;2023-04-03T01:48:16;6.00;;;1.90;;
18999;SDS011;9633;50.980;13.850;2023-04-03T01:49:49;4.03;;;2.27;;
18999;SDS011;9633;50.980;13.850;2023-04-03T01:51:22;4.80;;;1.70;;
18999;SDS011;9633;50.980;13.850;2023-04-03T01:52:55;4.33;;;2.20;;
18999;SDS011;9633;50.980;13.850;2023-04-03T01:54:28;5.03;;;2.17;;
18999;SDS011;9633;50.980;13.850;2023-04-03T01:56:01;4.23;;;1.83;;
18999;SDS011;9633;50.980;13.850;2023-04-03T01:57:36;3.93;;;1.73;;
18999;SDS011;9633;50.980;13.850;2023-04-03T01:59:09;3.87;;;2.00;;
18999;SDS011;9633;50.980;13.850;2023-04-03T02:00:42;5.07;;;2.20;;
18999;SDS011;9633;50.980;13.850;2023-04-03T02:02:15;5.90;;;2.33;;
18999;SDS011;9633;50.980;13.850;2023-04-03T02:03:50;3.43;;;1.80;;
18999;SDS011;9633;50.980;13.850;2023-04-03T02:05:23;5.23;;;2.00;;
18999;SDS011;9633;50.980;13.850;2023-04-03T02:06:55;5.87;;;1.93;;
18999;SDS011;9633;50.980;13.850;2023-04-03T02:08:28;5.10;;;1.83;;
18999;SDS011;9633;50.980;13.850;2023-04-03T02:10:02;6.13;;;2.10;;
18999;SDS011;9633;50.980;13.850;2023-04-03T02:11:35;3.27;;;1.73;;
18999;SDS011;9633;50.980;13.850;2023-04-03T02:13:08;4.07;;;2.00;;
18999;SDS011;9633;50.980;13.850;2023-04-03T02:14:41;3.73;;;1.80;;
18999;SDS011;9633;50.980;13.850;2023-04-03T02:16:16;5.00;;;1.90;;
18999;SDS011;9633;50.980;13.850;2023-04-03T02:17:49;5.00;;;2.17;;
18999;SDS011;9633;50.980;13.850;2023-04-03T02:19:24;4.60;;;2.03;;
18999;SDS011;9633;50.980;13.850;2023-04-03T02:20:57;6.70;;;2.10;;
18999;SDS011;9633;50.980;13.850;2023-04-03T02:22:30;4.33;;;1.87;;
18999;SDS011;9633;50.980;13.850;2023-04-03T02:24:04;5.63;;;2.10;;
18999;SDS011;9633;50.980;13.850;2023-04-03T02:25:38;5.13;;;1.90;;
18999;SDS011;9633;50.980;13.850;2023-04-03T02:27:10;3.07;;;1.80;;
18999;SDS011;9633;50.980;13.850;2023-04-03T02:28:43;6.60;;;2.33;;
18999;SDS011;9633;50.980;13.850;2023-04-03T02:30:17;4.73;;;2.10;;
18999;SDS011;9633;50.980;13.850;2023-04-03T02:31:50;5.20;;;1.87;;
18999;SDS011;9633;50.980;13.850;2023-04-03T02:33:25;4.60;;;1.63;;
18999;SDS011;9633;50.980;13.850;2023-04-03T02:34:59;4.50;;;2.27;;
18999;SDS011;9633;50.980;13.850;2023-04-03T02:36:32;3.30;;;1.80;;
18999;SDS011;9633;50.980;13.850;2023-04-03T02:38:09;4.20;;;1.93;;
18999;SDS011;9633;50.980;13.850;2023-04-03T02:39:42;7.37;;;2.43;;
18999;SDS011;9633;50.980;13.850;2023-04-03T02:41:15;6.00;;;2.07;;
18999;SDS011;9633;50.980;13.850;2023-04-03T02:42:49;4.60;;;1.60;;
18999;SDS011;9633;50.980;13.850;2023-04-03T02:44:23;4.57;;;2.27;;
18999;SDS011;9633;50.980;13.850;2023-04-03T02:45:57;4.15;;;1.90;;
18999;SDS011;9633;50.980;13.850;2023-04-03T02:47:30;4.80;;;2.03;;
18999;SDS011;9633;50.980;13.850;2023-04-03T02:49:04;3.93;;;1.80;;
18999;SDS011;9633;50.980;13.850;2023-04-03T02:50:39;5.40;;;2.00;;
18999;SDS011;9633;50.980;13.850;2023-04-03T02:52:12;2.78;;;1.50;;
18999;SDS011;9633;50.980;13.850;2023-04-03T02:53:45;4.47;;;2.00;;
18999;SDS011;9633;50.980;13.850;2023-04-03T02:55:23;4.25;;;2.05;;
18999;SDS011;9633;50.980;13.850;2023-04-03T02:56:59;4.77;;;2.27;;
18999;SDS011;9633;50.980;13.850;2023-04-03T02:58:32;2.83;;;1.50;;
18999;SDS011;9633;50.980;13.850;2023-04-03T03:00:06;3.10;;;1.67;;
18999;SDS011;9633;50.980;13.850;2023-04-03T03:01:41;2.87;;;2.00;;
18999;SDS011;9633;50.980;13.850;2023-04-03T03:03:14;3.57;;;2.00;;
18999;SDS011;9633;50.980;13.850;2023-04-03T03:04:48;4.63;;;2.08;;
18999;SDS011;9633;50.980;13.850;2023-04-03T03:06:22;5.00;;;2.00;;
18999;SDS011;9633;50.980;13.850;2023-04-03T03:07:56;3.45;;;1.95;;
18999;SDS011;9633;50.980;13.850;2023-04-03T03:09:29;5.47;;;1.90;;
18999;SDS011;9633;50.980;13.850;2023-04-03T03:11:03;3.92;;;1.70;;
18999;SDS011;9633;50.980;13.850;2023-04-03T03:12:37;3.78;;;2.20;;
18999;SDS011;9633;50.980;13.850;2023-04-03T03:14:11;5.18;;;2.05;;
18999;SDS011;9633;50.980;13.850;2023-04-03T03:15:45;5.87;;;1.90;;
18999;SDS011;9633;50.980;13.850;2023-04-03T03:17:18;3.30;;;2.10;;
18999;SDS011;9633;50.980;13.850;2023-04-03T03:18:52;4.43;;;1.90;;
18999;SDS011;9633;50.980;13.850;2023-04-03T03:20:27;5.68;;;1.90;;
18999;SDS011;9633;50.980;13.850;2023-04-03T03:22:03;5.10;;;2.13;;
18999;SDS011;9633;50.980;13.850;2023-04-03T03:23:37;4.07;;;1.80;;
18999;SDS011;9633;50.980;13.850;2023-04-03T03:25:11;3.17;;;1.95;;
18999;SDS011;9633;50.980;13.850;2023-04-03T03:26:44;3.67;;;1.70;;
18999;SDS011;9633;50.980;13.850;2023-04-03T03:28:18;5.13;;;1.95;;
18999;SDS011;9633;50.980;13.850;2023-04-03T03:29:53;6.07;;;2.45;;
18999;SDS011;9633;50.980;13.850;2023-04-03T03:31:26;5.60;;;1.83;;
18999;SDS011;9633;50.980;13.850;2023-04-03T03:32:59;7.03;;;2.00;;
18999;SDS011;9633;50.980;13.850;2023-04-03T03:34:32;6.72;;;2.47;;
18999;SDS011;9633;50.980;13.850;2023-04-03T03:36:06;6.72;;;2.08;;
18999;SDS011;9633;50.980;13.850;2023-04-03T03:37:41;4.60;;;2.00;;
18999;SDS011;9633;50.980;13.850;2023-04-03T03:39:15;3.38;;;1.88;;
18999;SDS011;9633;50.980;13.850;2023-04-03T03:40:49;3.30;;;1.77;;
18999;SDS011;9633;50.980;13.850;2023-04-03T03:42:24;6.43;;;1.92;;
18999;SDS011;9633;50.980;13.850;2023-04-03T03:43:58;4.75;;;1.92;;
18999;SDS011;9633;50.980;13.850;2023-04-03T03:45:33;5.05;;;1.90;;
18999;SDS011;9633;50.980;13.850;2023-04-03T03:47:07;4.55;;;1.65;;
18999;SDS011;9633;50.980;13.850;2023-04-03T03:48:42;5.38;;;1.90;;
18999;SDS011;9633;50.980;13.850;2023-04-03T03:50:15;6.25;;;1.65;;
18999;SDS011;9633;50.980;13.850;2023-04-03T03:51:49;5.25;;;1.90;;
18999;SDS011;9633;50.980;13.850;2023-04-03T03:53:24;2.38;;;1.60;;
18999;SDS011;9633;50.980;13.850;2023-04-03T03:55:01;6.32;;;1.75;;
18999;SDS011;9633;50.980;13.850;2023-04-03T03:56:35;9.07;;;2.33;;
18999;SDS011;9633;50.980;13.850;2023-04-03T03:58:08;4.82;;;1.80;;
18999;SDS011;9633;50.980;13.850;2023-04-03T03:59:41;7.25;;;2.20;;
18999;SDS011;9633;50.980;13.850;2023-04-03T04:01:15;5.63;;;1.80;;
18999;SDS011;9633;50.980;13.850;2023-04-03T04:02:51;4.90;;;2.03;;
18999;SDS011;9633;50.980;13.850;2023-04-03T04:04:29;7.47;;;2.10;;
18999;SDS011;9633;50.980;13.850;2023-04-03T04:06:03;4.05;;;1.85;;
18999;SDS011;9633;50.980;13.850;2023-04-03T04:07:37;5.95;;;1.70;;
18999;SDS011;9633;50.980;13.850;2023-04-03T04:09:11;5.85;;;1.83;;
18999;SDS011;9633;50.980;13.850;2023-04-03T04:10:45;4.80;;;1.70;;
18999;SDS011;9633;50.980;13.850;2023-04-03T04:12:19;4.38;;;1.88;;
18999;SDS011;9633;50.980;13.850;2023-04-03T04:13:52;5.55;;;1.95;;
18999;SDS011;9633;50.980;13.850;2023-04-03T04:15:29;5.38;;;2.33;;
18999;SDS011;9633;50.980;13.850;2023-04-03T04:17:03;7.07;;;1.95;;
18999;SDS011;9633;50.980;13.850;2023-04-03T04:18:36;3.80;;;1.92;;
18999;SDS011;9633;50.980;13.850;2023-04-03T04:20:10;3.58;;;1.90;;
18999;SDS011;9633;50.980;13.850;2023-04-03T04:21:44;6.55;;;1.83;;
18999;SDS011;9633;50.980;13.850;2023-04-03T04:23:18;5.80;;;1.90;;
18999;SDS011;9633;50.980;13.850;2023-04-03T04:24:54;4.28;;;1.83;;
18999;SDS011;9633;50.980;13.850;2023-04-03T04:26:28;4.93;;;1.83;;
18999;SDS011;9633;50.980;13.850;2023-04-03T04:28:01;3.05;;;1.60;;
18999;SDS011;9633;50.980;13.850;2023-04-03T04:29:35;8.85;;;2.33;;
18999;SDS011;9633;50.980;13.850;2023-04-03T04:31:10;6.43;;;2.47;;
18999;SDS011;9633;50.980;13.850;2023-04-03T04:32:44;4.63;;;2.03;;
18999;SDS011;9633;50.980;13.850;2023-04-03T04:34:18;4.97;;;2.00;;
18999;SDS011;9633;50.980;13.850;2023-04-03T04:35:51;4.32;;;1.98;;
18999;SDS011;9633;50.980;13.850;2023-04-03T04:37:25;4.05;;;1.67;;
18999;SDS011;9633;50.980;13.850;2023-04-03T04:38:59;7.63;;;2.42;;
18999;SDS011;9633;50.980;13.850;2023-04-03T04:40:34;5.88;;;2.08;;
18999;SDS011;9633;50.980;13.850;2023-04-03T04:42:09;4.18;;;1.95;;
18999;SDS011;9633;50.980;13.850;2023-04-03T04:43:47;5.53;;;2.15;;
18999;SDS011;9633;50.980;13.850;2023-04-03T04:45:21;5.80;;;2.38;;
18999;SDS011;9633;50.980;13.850;2023-04-03T04:46:54;4.40;;;2.20;;
18999;SDS011;9633;50.980;13.850;2023-04-03T04:48:28;5.22;;;2.10;;
18999;SDS011;9633;50.980;13.850;2023-04-03T04:50:03;7.03;;;2.25;;
18999;SDS011;9633;50.980;13.850;2023-04-03T04:51:37;6.35;;;2.30;;
18999;SDS011;9633;50.980;13.850;2023-04-03T04:53:24;3.88;;;1.75;;
18999;SDS011;9633;50.980;13.850;2023-04-03T04:54:58;5.50;;;2.25;;
18999;SDS011;9633;50.980;13.850;2023-04-03T04:56:33;4.03;;;2.13;;
18999;SDS011;9633;50.980;13.850;2023-04-03T04:58:07;5.93;;;2.40;;
18999;SDS011;9633;50.980;13.850;2023-04-03T04:59:41;8.13;;;2.45;;
18999;SDS011;9633;50.980;13.850;2023-04-03T05:01:14;7.47;;;2.47;;
18999;SDS011;9633;50.980;13.850;2023-04-03T05:02:56;5.13;;;2.45;;
18999;SDS011;9633;50.980;13.850;2023-04-03T05:04:29;4.47;;;2.40;;
18999;SDS011;9633;50.980;13.850;2023-04-03T05:06:08;6.10;;;2.22;;
18999;SDS011;9633;50.980;13.850;2023-04-03T05:07:42;5.80;;;2.40;;
18999;SDS011;9633;50.980;13.850;2023-04-03T05:09:16;5.15;;;2.10;;
18999;SDS011;9633;50.980;13.850;2023-04-03T05:10:52;4.25;;;2.40;;
18999;SDS011;9633;50.980;13.850;2023-04-03T05:12:29;5.60;;;2.13;;
18999;SDS011;9633;50.980;13.850;2023-04-03T05:14:05;6.53;;;2.40;;
18999;SDS011;9633;50.980;13.850;2023-04-03T05:15:39;5.05;;;2.40;;
18999;SDS011;9633;50.980;13.850;2023-04-03T05:17:13;6.10;;;2.08;;
18999;SDS011;9633;50.980;13.850;2023-04-03T05:18:53;4.15;;;2.08;;
18999;SDS011;9633;50.980;13.850;2023-04-03T05:20:27;5.63;;;2.00;;
18999;SDS011;9633;50.980;13.850;2023-04-03T05:22:00;6.45;;;2.00;;
18999;SDS011;9633;50.980;13.850;2023-04-03T05:23:34;5.50;;;2.33;;
18999;SDS011;9633;50.980;13.850;2023-04-03T05:25:08;7.50;;;2.10;;
18999;SDS011;9633;50.980;13.850;2023-04-03T05:26:45;6.28;;;1.95;;
18999;SDS011;9633;50.980;13.850;2023-04-03T05:28:20;4.60;;;1.98;;
18999;SDS011;9633;50.980;13.850;2023-04-03T05:29:54;6.87;;;2.50;;
18999;SDS011;9633;50.980;13.850;2023-04-03T05:31:29;6.55;;;1.95;;
18999;SDS011;9633;50.980;13.850;2023-04-03T05:33:02;5.93;;;2.40;;
18999;SDS011;9633;50.980;13.850;2023-04-03T05:34:50;4.25;;;2.08;;
18999;SDS011;9633;50.980;13.850;2023-04-03T05:36:24;4.53;;;2.28;;
18999;SDS011;9633;50.980;13.850;2023-04-03T05:38:02;6.60;;;2.13;;
18999;SDS011;9633;50.980;13.850;2023-04-03T05:39:36;10.50;;;2.42;;
18999;SDS011;9633;50.980;13.850;2023-04-03T05:41:11;4.35;;;2.10;;
18999;SDS011;9633;50.980;13.850;2023-04-03T05:42:46;7.45;;;2.40;;
18999;SDS011;9633;50.980;13.850;2023-04-03T05:44:23;7.22;;;2.05;;
18999;SDS011;9633;50.980;13.850;2023-04-03T05:45:58;5.40;;;2.22;;
18999;SDS011;9633;50.980;13.850;2023-04-03T05:47:33;3.35;;;2.20;;
18999;SDS011;9633;50.980;13.850;2023-04-03T05:49:07;5.93;;;2.15;;
18999;SDS011;9633;50.980;13.850;2023-04-03T05:50:41;5.68;;;2.20;;
18999;SDS011;9633;50.980;13.850;2023-04-03T05:52:20;7.25;;;2.22;;
18999;SDS011;9633;50.980;13.850;2023-04-03T05:53:56;6.75;;;2.28;;
18999;SDS011;9633;50.980;13.850;2023-04-03T05:55:33;8.18;;;2.33;;
18999;SDS011;9633;50.980;13.850;2023-04-03T05:57:07;7.13;;;2.90;;
18999;SDS011;9633;50.980;13.850;2023-04-03T05:58:41;5.73;;;2.40;;
18999;SDS011;9633;50.980;13.850;2023-04-03T06:00:16;9.03;;;2.50;;
18999;SDS011;9633;50.980;13.850;2023-04-03T06:01:59;5.22;;;2.25;;
18999;SDS011;9633;50.980;13.850;2023-04-03T06:03:33;9.93;;;2.60;;
18999;SDS011;9633;50.980;13.850;2023-04-03T06:05:10;7.00;;;2.67;;
18999;SDS011;9633;50.980;13.850;2023-04-03T06:06:45;7.43;;;2.95;;
18999;SDS011;9633;50.980;13.850;2023-04-03T06:08:19;8.13;;;2.40;;
18999;SDS011;9633;50.980;13.850;2023-04-03T06:09:53;5.10;;;2.33;;
18999;SDS011;9633;50.980;13.850;2023-04-03T06:11:27;7.80;;;2.53;;
18999;SDS011;9633;50.980;13.850;2023-04-03T06:13:01;8.05;;;2.20;;
18999;SDS011;9633;50.980;13.850;2023-04-03T06:14:35;10.32;;;2.30;;
18999;SDS011;9633;50.980;13.850;2023-04-03T06:16:10;8.48;;;2.88;;
18999;SDS011;9633;50.980;13.850;2023-04-03T06:17:46;5.57;;;2.40;;
18999;SDS011;9633;50.980;13.850;2023-04-03T06:19:20;4.67;;;2.27;;
18999;SDS011;9633;50.980;13.850;2023-04-03T06:20:57;4.60;;;2.10;;
18999;SDS011;9633;50.980;13.850;2023-04-03T06:22:32;6.60;;;2.17;;
18999;SDS011;9633;50.980;13.850;2023-04-03T06:24:06;4.10;;;2.10;;
18999;SDS011;9633;50.980;13.850;2023-04-03T06:25:40;4.60;;;2.23;;
18999;SDS011;9633;50.980;13.850;2023-04-03T06:27:13;6.87;;;2.70;;
18999;SDS011;9633;50.980;13.850;2023-04-03T06:28:47;4.53;;;2.37;;
18999;SDS011;9633;50.980;13.850;2023-04-03T06:30:20;6.63;;;2.63;;
18999;SDS011;9633;50.980;13.850;2023-04-03T06:31:56;5.57;;;2.37;;
18999;SDS011;9633;50.980;13.850;2023-04-03T06:33:29;6.20;;;2.43;;
18999;SDS011;9633;50.980;13.850;2023-04-03T06:35:03;4.23;;;2.20;;
18999;SDS011;9633;50.980;13.850;2023-04-03T06:36:37;5.27;;;2.20;;
18999;SDS011;9633;50.980;13.850;2023-04-03T06:38:10;6.80;;;2.37;;
18999;SDS011;9633;50.980;13.850;2023-04-03T06:39:44;8.13;;;2.17;;
18999;SDS011;9633;50.980;13.850;2023-04-03T06:41:17;9.17;;;2.40;;
18999;SDS011;9633;50.980;13.850;2023-04-03T06:42:50;8.50;;;2.40;;
18999;SDS011;9633;50.980;13.850;2023-04-03T06:44:24;6.53;;;2.13;;
18999;SDS011;9633;50.980;13.850;2023-04-03T06:45:57;5.20;;;2.60;;
18999;SDS011;9633;50.980;13.850;2023-04-03T06:47:33;7.60;;;2.73;;
18999;SDS011;9633;50.980;13.850;2023-04-03T06:49:06;5.43;;;2.33;;
18999;SDS011;9633;50.980;13.850;2023-04-03T06:50:41;5.47;;;2.43;;
18999;SDS011;9633;50.980;13.850;2023-04-03T06:52:15;4.37;;;2.23;;
18999;SDS011;9633;50.980;13.850;2023-04-03T06:53:49;6.23;;;2.40;;
18999;SDS011;9633;50.980;13.850;2023-04-03T06:55:22;4.67;;;2.33;;
18999;SDS011;9633;50.980;13.850;2023-04-03T06:56:56;6.43;;;2.43;;
18999;SDS011;9633;50.980;13.850;2023-04-03T06:58:29;4.60;;;2.40;;
18999;SDS011;9633;50.980;13.850;2023-04-03T07:00:04;5.03;;;2.60;;
18999;SDS011;9633;50.980;13.850;2023-04-03T07:01:38;7.27;;;2.10;;
18999;SDS011;9633;50.980;13.850;2023-04-03T07:03:13;5.70;;;2.43;;
18999;SDS011;9633;50.980;13.850;2023-04-03T07:04:47;7.70;;;2.27;;
18999;SDS011;9633;50.980;13.850;2023-04-03T07:06:21;5.20;;;2.10;;
18999;SDS011;9633;50.980;13.850;2023-04-03T07:07:54;4.97;;;2.30;;
18999;SDS011;9633;50.980;13.850;2023-04-03T07:09:30;8.20;;;2.67;;
18999;SDS011;9633;50.980;13.850;2023-04-03T07:11:04;7.97;;;2.40;;
18999;SDS011;9633;50.980;13.850;2023-04-03T07:12:38;8.73;;;2.60;;
18999;SDS011;9633;50.980;13.850;2023-04-03T07:14:12;5.33;;;2.00;;
18999;SDS011;9633;50.980;13.850;2023-04-03T07:15:47;6.47;;;2.40;;
18999;SDS011;9633;50.980;13.850;2023-04-03T07:17:20;6.33;;;2.27;;
18999;SDS011;9633;50.980;13.850;2023-04-03T07:18:55;6.07;;;2.50;;
18999;SDS011;9633;50.980;13.850;2023-04-03T07:20:28;4.82;;;2.20;;
18999;SDS011;9633;50.980;13.850;2023-04-03T07:22:02;6.67;;;2.30;;
18999;SDS011;9633;50.980;13.850;2023-04-03T07:23:36;4.30;;;2.10;;
18999;SDS011;9633;50.980;13.850;2023-04-03T07:25:10;5.87;;;2.90;;
18999;SDS011;9633;50.980;13.850;2023-04-03T07:26:48;7.80;;;2.57;;
18999;SDS011;9633;50.980;13.850;2023-04-03T07:28:22;6.03;;;2.60;;
18999;SDS011;9633;50.980;13.850;2023-04-03T07:29:56;7.00;;;2.20;;
18999;SDS011;9633;50.980;13.850;2023-04-03T07:31:30;6.83;;;2.50;;
18999;SDS011;9633;50.980;13.850;2023-04-03T07:33:05;3.93;;;2.30;;
18999;SDS011;9633;50.980;13.850;2023-04-03T07:34:40;4.10;;;2.40;;
18999;SDS011;9633;50.980;13.850;2023-04-03T07:36:14;5.97;;;2.30;;
18999;SDS011;9633;50.980;13.850;2023-04-03T07:37:48;5.50;;;2.47;;
18999;SDS011;9633;50.980;13.850;2023-04-03T07:39:22;6.93;;;2.60;;
18999;SDS011;9633;50.980;13.850;2023-04-03T07:40:55;5.23;;;2.83;;
18999;SDS011;9633;50.980;13.850;2023-04-03T07:42:29;5.93;;;2.63;;
18999;SDS011;9633;50.980;13.850;2023-04-03T07:44:02;3.10;;;2.43;;
18999;SDS011;9633;50.980;13.850;2023-04-03T07:45:36;5.77;;;2.40;;
18999;SDS011;9633;50.980;13.850;2023-04-03T07:47:10;6.03;;;2.70;;
18999;SDS011;9633;50.980;13.850;2023-04-03T07:48:45;4.77;;;2.83;;
18999;SDS011;9633;50.980;13.850;2023-04-03T07:50:20;7.60;;;3.03;;
18999;SDS011;9633;50.980;13.850;2023-04-03T07:51:54;5.93;;;2.37;;
18999;SDS011;9633;50.980;13.850;2023-04-03T07:53:27;5.97;;;2.40;;
18999;SDS011;9633;50.980;13.850;2023-04-03T07:55:01;3.60;;;2.20;;
18999;SDS011;9633;50.980;13.850;2023-04-03T07:56:34;5.87;;;2.43;;
18999;SDS011;9633;50.980;13.850;2023-04-03T07:58:08;4.30;;;2.40;;
18999;SDS011;9633;50.980;13.850;2023-04-03T07:59:41;4.73;;;2.70;;
18999;SDS011;9633;50.980;13.850;2023-04-03T08:01:15;5.53;;;2.50;;
18999;SDS011;9633;50.980;13.850;2023-04-03T08:02:48;6.40;;;2.77;;
18999;SDS011;9633;50.980;13.850;2023-04-03T08:04:23;9.30;;;2.70;;
18999;SDS011;9633;50.980;13.850;2023-04-03T08:06:02;3.87;;;2.40;;
18999;SDS011;9633;50.980;13.850;2023-04-03T08:07:37;7.87;;;2.73;;
18999;SDS011;9633;50.980;13.850;2023-04-03T08:09:11;4.73;;;2.50;;
18999;SDS011;9633;50.980;13.850;2023-04-03T08:10:47;6.77;;;2.47;;
18999;SDS011;9633;50.980;13.850;2023-04-03T08:12:21;6.80;;;2.37;;
18999;SDS011;9633;50.980;13.850;2023-04-03T08:13:54;4.03;;;2.30;;
18999;SDS011;9633;50.980;13.850;2023-04-03T08:15:28;5.33;;;2.70;;
18999;SDS011;9633;50.980;13.850;2023-04-03T08:17:02;5.93;;;2.90;;
18999;SDS011;9633;50.980;13.850;2023-04-03T08:18:36;7.03;;;2.73;;
18999;SDS011;9633;50.980;13.850;2023-04-03T08:20:11;7.10;;;2.40;;
18999;SDS011;9633;50.980;13.850;2023-04-03T08:21:45;5.33;;;2.60;;
18999;SDS011;9633;50.980;13.850;2023-04-03T08:23:19;5.83;;;2.57;;
18999;SDS011;9633;50.980;13.850;2023-04-03T08:24:52;6.17;;;2.47;;
18999;SDS011;9633;50.980;13.850;2023-04-03T08:26:30;5.20;;;2.50;;
18999;SDS011;9633;50.980;13.850;2023-04-03T08:28:03;5.90;;;2.50;;
18999;SDS011;9633;50.980;13.850;2023-04-03T08:29:36;5.63;;;2.63;;
18999;SDS011;9633;50.980;13.850;2023-04-03T08:31:10;5.77;;;2.27;;
18999;SDS011;9633;50.980;13.850;2023-04-03T08:32:45;4.77;;;2.60;;
18999;SDS011;9633;50.980;13.850;2023-04-03T08:34:18;6.13;;;2.67;;
18999;SDS011;9633;50.980;13.850;2023-04-03T08:35:52;6.57;;;2.67;;
18999;SDS011;9633;50.980;13.850;2023-04-03T08:37:27;5.03;;;2.40;;
18999;SDS011;9633;50.980;13.850;2023-04-03T08:39:01;5.23;;;2.50;;
18999;SDS011;9633;50.980;13.850;2023-04-03T08:40:35;6.60;;;2.50;;
18999;SDS011;9633;50.980;13.850;2023-04-03T08:42:12;5.03;;;2.40;;
18999;SDS011;9633;50.980;13.850;2023-04-03T08:43:56;5.03;;;2.47;;
18999;SDS011;9633;50.980;13.850;2023-04-03T08:45:34;4.30;;;2.33;;
18999;SDS011;9633;50.980;13.850;2023-04-03T08:47:12;4.67;;;2.00;;
18999;SDS011;9633;50.980;13.850;2023-04-03T08:48:47;6.70;;;2.90;;
18999;SDS011;9633;50.980;13.850;2023-04-03T08:50:23;7.23;;;2.77;;
18999;SDS011;9633;50.980;13.850;2023-04-03T08:52:01;5.07;;;2.40;;
18999;SDS011;9633;50.980;13.850;2023-04-03T08:53:39;8.23;;;2.80;;
18999;SDS011;9633;50.980;13.850;2023-04-03T08:55:16;6.07;;;2.80;;
18999;SDS011;9633;50.980;13.850;2023-04-03T08:56:51;6.83;;;2.30;;
18999;SDS011;9633;50.980;13.850;2023-04-03T08:58:25;6.30;;;2.70;;
18999;SDS011;9633;50.980;13.850;2023-04-03T09:00:00;7.70;;;2.80;;
18999;SDS011;9633;50.980;13.850;2023-04-03T09:01:35;5.00;;;2.77;;
18999;SDS011;9633;50.980;13.850;2023-04-03T09:03:11;5.50;;;2.30;;
18999;SDS011;9633;50.980;13.850;2023-04-03T09:04:45;5.43;;;2.60;;
18999;SDS011;9633;50.980;13.850;2023-04-03T09:06:20;3.70;;;2.23;;
18999;SDS011;9633;50.980;13.850;2023-04-03T09:07:55;5.93;;;2.37;;
18999;SDS011;9633;50.980;13.850;2023-04-03T09:09:33;6.37;;;2.87;;
18999;SDS011;9633;50.980;13.850;2023-04-03T09:11:09;6.50;;;2.40;;
18999;SDS011;9633;50.980;13.850;2023-04-03T09:12:46;7.27;;;3.30;;
18999;SDS011;9633;50.980;13.850;2023-04-03T09:14:22;4.43;;;2.87;;
18999;SDS011;9633;50.980;13.850;2023-04-03T09:15:59;5.73;;;2.33;;
18999;SDS011;9633;50.980;13.850;2023-04-03T09:17:35;6.93;;;3.10;;
18999;SDS011;9633;50.980;13.850;2023-04-03T09:19:13;5.40;;;2.40;;
18999;SDS011;9633;50.980;13.850;2023-04-03T09:20:49;7.20;;;2.33;;
18999;SDS011;9633;50.980;13.850;2023-04-03T09:22:27;7.33;;;2.20;;
18999;SDS011;9633;50.980;13.850;2023-04-03T09:24:05;3.37;;;2.33;;
18999;SDS011;9633;50.980;13.850;2023-04-03T09:25:41;4.70;;;3.10;;
18999;SDS011;9633;50.980;13.850;2023-04-03T09:27:15;3.37;;;2.13;;
18999;SDS011;9633;50.980;13.850;2023-04-03T09:28:48;5.60;;;2.07;;
18999;SDS011;9633;50.980;13.850;2023-04-03T09:30:23;4.00;;;2.07;;
18999;SDS011;9633;50.980;13.850;2023-04-03T09:31:59;3.70;;;1.93;;
18999;SDS011;9633;50.980;13.850;2023-04-03T09:33:32;4.80;;;1.87;;